• Join FlightAware (Why Join?)
  • Login
  • US Flag 
02:50PM EDT


 

Airport Tracker/Info


-or-


 

Live Flight TrackerFlight Track Log ✈ UAL906 ✈ 24-Apr-2013 ✈ KORD - EDDM / MUC

Flight Track Log - Related Links

Times and Time Zones

All times are in EDT time to prevent confusion due to time zone crossing. See the UAL906 flight status page for this flight to view local times or setup timezone preferences in your user account.

Time Position Orientation Groundspeed Altitude Reporting Facility
EDT Latitude Longitude Course Direction KTS MPH feet Rate Location/Type
07:12PM 41.9850 -87.9260 320° Northwest 165 190 1,500  Level FlightAware
07:12PM 42.0040 -87.9430 326° Northwest 182 209 2,500 1,740 Climbing FlightAware
07:12PM 42.0250 -87.9610 328° Northwest 213 245 3,100 1,740 Climbing FlightAware
07:13PM 42.0510 -87.9830 328° Northwest 228 262 4,100 1,500 Climbing FlightAware
07:13PM 42.0760 -88.0060 326° Northwest 250 288 4,600 840 Climbing FlightAware
07:14PM 42.1060 -88.0250 335° Northwest 260 299 4,900 660 Climbing FlightAware
07:15PM 42.1610 -88.0220 North 255 293 5,400 1,320 Climbing FlightAware
07:15PM 42.1950 -88.0190 North 262 302 6,600 2,820 Climbing FlightAware
07:16PM 42.2260 -88.0160 North 257 296 8,000 2,820 Climbing FlightAware
07:16PM 42.2620 -88.0110 North 266 306 9,200 2,040 Climbing FlightAware
07:17PM 42.3130 -88.0030 North 296 341 10,400 1,440 Climbing FlightAware
07:17PM 42.3790 -87.9950 North 338 389 11,300 1,680 Climbing FlightAware
07:18PM 42.4440 -87.9880 North 353 406 12,800 2,280 Climbing FlightAware
07:19PM 42.5100 -87.9800 North 365 420 14,400 2,220 Climbing FlightAware
07:20PM 42.5880 -87.9690 North 378 435 16,000 2,100 Climbing FlightAware
07:20PM 42.6580 -87.9500 11° North 400 460 17,400 1,800 Climbing FlightAware
07:21PM 42.7260 -87.8810 37° Northeast 425 489 18,600 1,620 Climbing FlightAware
07:22PM 42.7800 -87.8230 38° Northeast 434 499 19,600 1,740 Climbing FlightAware
07:22PM 42.8580 -87.7320 41° Northeast 444 511 21,100 1,800 Climbing FlightAware
07:23PM 42.9210 -87.6550 42° Northeast 449 517 22,300 1,620 Climbing FlightAware
07:24PM 42.9820 -87.5820 41° Northeast 455 524 23,300 1,440 Climbing FlightAware
07:24PM 43.0570 -87.4940 41° Northeast 465 535 24,400 1,020 Climbing FlightAware
07:25PM 43.1080 -87.4330 41° Northeast 466 536 24,700 180 Climbing FlightAware
07:26PM 43.1770 -87.3500 41° Northeast 466 536 24,700 1,500 Level FlightAware
07:26PM 43.2540 -87.2600 40° Northeast 486 559 26,900 2,580 Climbing FlightAware
07:27PM 43.3290 -87.1690 41° Northeast 484 557 28,200 1,500 Climbing FlightAware
07:28PM 43.4060 -87.0770 41° Northeast 486 559 29,200 1,260 Climbing FlightAware
07:29PM 43.4720 -86.9970 41° Northeast 487 560 30,000 1,020 Climbing FlightAware
07:29PM 43.5490 -86.9040 41° Northeast 495 570 30,700 720 Climbing FlightAware
07:30PM 43.6130 -86.8270 41° Northeast 499 574 31,000 180 Climbing FlightAware
07:31PM 43.6880 -86.7360 41° Northeast 498 573 31,000 120 Level FlightAware
07:31PM 43.7570 -86.6530 41° Northeast 498 573 31,200 840 Climbing FlightAware
07:32PM 43.8320 -86.5610 41° Northeast 493 567 32,200 1,020 Climbing FlightAware
07:33PM 43.8910 -86.4890 41° Northeast 497 572 32,600 540 Climbing FlightAware
07:34PM 43.9820 -86.3770 42° Northeast 505 581 33,000 240 Climbing FlightAware
07:34PM 44.0520 -86.2910 41° Northeast 514 592 33,000  Level FlightAware
07:35PM 44.1190 -86.2090 41° Northeast 517 595 33,000  Level FlightAware
07:36PM 44.2060 -86.1020 41° Northeast 518 596 33,000  Level FlightAware
07:36PM 44.2850 -86.0030 42° Northeast 511 588 33,000  Level FlightAware
07:37PM 44.3550 -85.9150 42° Northeast 510 587 33,000  Level FlightAware
07:38PM 44.4070 -85.8490 42° Northeast 510 587 33,000  Level FlightAware
07:38PM 44.4930 -85.7410 42° Northeast 510 587 33,000  Level FlightAware
07:39PM 44.5740 -85.6390 42° Northeast 511 588 33,000  Level FlightAware
07:40PM 44.6520 -85.5410 42° Northeast 513 590 33,000  Level FlightAware
07:41PM 44.7230 -85.4500 42° Northeast 514 592 33,000  Level FlightAware
07:41PM 44.7930 -85.3630 41° Northeast 516 594 33,000  Level FlightAware
07:42PM 44.8780 -85.2570 41° Northeast 518 596 33,000  Level FlightAware
07:43PM 44.9480 -85.1690 42° Northeast 519 597 33,000  Level FlightAware
07:43PM 45.0290 -85.0670 42° Northeast 521 600 33,000  Level FlightAware
07:44PM 45.1010 -84.9760 42° Northeast 522 601 33,000  Level FlightAware
07:45PM 45.1730 -84.8850 42° Northeast 523 602 33,000  Level FlightAware
07:45PM 45.2520 -84.7830 42° Northeast 523 602 33,000  Level FlightAware
07:46PM 45.3170 -84.7010 42° Northeast 524 603 33,000  Level FlightAware
07:47PM 45.3960 -84.5980 42° Northeast 525 604 33,000  Level FlightAware
07:48PM 45.4790 -84.4920 42° Northeast 525 604 33,000  Level FlightAware
07:48PM 45.5500 -84.3990 43° Northeast 524 603 33,000  Level FlightAware
07:49PM 45.6290 -84.2960 42° Northeast 524 603 33,000  Level FlightAware
07:50PM 45.7020 -84.2010 42° Northeast 523 602 33,000  Level FlightAware
07:50PM 45.7720 -84.1090 42° Northeast 522 601 33,000  Level FlightAware
07:51PM 45.8540 -84.0010 43° Northeast 520 598 33,000  Level FlightAware
07:52PM 45.9210 -83.9110 43° Northeast 518 596 33,000  Level FlightAware
07:52PM 46.0010 -83.8060 42° Northeast 517 595 33,000  Level FlightAware
07:53PM 46.0630 -83.7220 43° Northeast 516 594 33,000  Level FlightAware
07:54PM 46.1510 -83.6050 43° Northeast 516 594 33,000  Level FlightAware
07:55PM 46.2210 -83.5110 43° Northeast 516 594 33,000  Level FlightAware
07:55PM 46.2900 -83.4170 43° Northeast 516 594 33,000  Level FlightAware
07:56PM 46.3670 -83.3120 43° Northeast 516 594 33,000  Level FlightAware
07:57PM 46.4370 -83.2180 43° Northeast 516 594 33,000  Level FlightAware
07:57PM 46.5160 -83.1100 43° Northeast 516 594 33,000  Level FlightAware
07:58PM 46.5730 -83.0320 43° Northeast 516 594 33,000  Level FlightAware
07:59PM 46.6530 -82.9220 43° Northeast 516 594 33,000  Level FlightAware
07:59PM 46.7290 -82.8150 44° Northeast 515 593 33,000  Level FlightAware
08:00PM 46.7950 -82.7230 44° Northeast 515 593 33,000  Level FlightAware
08:01PM 46.8690 -82.6210 43° Northeast 514 592 33,000  Level FlightAware
08:01PM 46.9320 -82.5340 43° Northeast 514 592 33,000  Level FlightAware
08:02PM 46.9910 -82.4530 43° Northeast 514 592 33,000  Level FlightAware
08:03PM 47.0650 -82.3520 43° Northeast 514 592 33,000  Level FlightAware
08:04PM 47.1240 -82.2710 43° Northeast 514 592 33,000  Level FlightAware
08:04PM 47.1830 -82.1900 43° Northeast 514 592 33,000  Level FlightAware
08:05PM 47.2420 -82.1090 43° Northeast 514 592 33,000  Level FlightAware
08:06PM 47.3010 -82.0280 43° Northeast 514 592 33,000  Level FlightAware
08:06PM 47.3750 -81.9260 43° Northeast 514 592 33,000  Level FlightAware
08:07PM 47.4200 -81.8650 43° Northeast 514 592 33,000  Level FlightAware
08:08PM 47.4940 -81.7630 43° Northeast 514 592 33,000  Level FlightAware
08:08PM 47.5530 -81.6810 43° Northeast 514 592 33,000  Level FlightAware
08:09PM 47.6120 -81.5990 43° Northeast 514 592 33,000  Level FlightAware
08:10PM 47.6860 -81.4970 43° Northeast 514 592 33,000  Level FlightAware
08:11PM 47.7450 -81.4150 43° Northeast 514 592 33,000  Level FlightAware
08:11PM 47.8833 -81.1500 43° Northeast 520 598 33,000  Level Montreal Center
08:12PM 48.0000 -80.9833 44° Northeast 520 598 33,000  Level Montreal Center
08:13PM 48.1000 -80.8167 48° Northeast 520 598 33,000  Level Montreal Center
08:14PM 48.2167 -80.6833 37° Northeast 520 598 33,000  Level Montreal Center
08:15PM 48.3333 -80.5500 37° Northeast 530 610 33,000  Level Montreal Center
08:16PM 48.4500 -80.4333 34° Northeast 540 621 33,000  Level Montreal Center
08:17PM 48.5667 -80.2833 40° Northeast 540 621 33,000  Level Montreal Center
08:18PM 48.7000 -80.1500 33° Northeast 540 621 33,000  Level Montreal Center
08:19PM 48.8167 -80.0333 33° Northeast 540 621 33,000  Level Montreal Center
08:20PM 48.9500 -79.8833 36° Northeast 540 621 33,000  Level Montreal Center
08:21PM 49.0500 -79.7333 44° Northeast 550 633 33,000  Level Montreal Center
08:22PM 49.2000 -79.6000 30° Northeast 550 633 33,000  Level Montreal Center
08:23PM 49.3167 -79.4500 40° Northeast 550 633 33,000  Level Montreal Center
08:24PM 49.4167 -79.3000 44° Northeast 550 633 33,000  Level Montreal Center
08:26PM 49.6833 -79.0000 36° Northeast 560 644 33,000  Level Montreal Center
08:27PM 49.8000 -78.8667 36° Northeast 560 644 33,000  Level Montreal Center
08:28PM 49.9500 -78.7167 33° Northeast 570 656 33,000  Level Montreal Center
08:29PM 50.0500 -78.5833 41° Northeast 560 644 33,000  Level Montreal Center
08:30PM 50.1667 -78.4333 39° Northeast 560 644 33,000  Level Montreal Center
08:31PM 50.3000 -78.2833 36° Northeast 570 656 33,000  Level Montreal Center
08:32PM 50.4333 -78.1333 36° Northeast 550 633 33,000  Level Montreal Center
08:33PM 50.5500 -77.9500 45° Northeast 560 644 33,000  Level Montreal Center
08:34PM 50.6667 -77.8167 36° Northeast 570 656 33,000  Level Montreal Center
08:35PM 50.8000 -77.6500 38° Northeast 580 667 33,000  Level Montreal Center
08:36PM 50.9167 -77.4833 42° Northeast 580 667 33,000  Level Montreal Center
08:37PM 51.0667 -77.3333 32° Northeast 590 679 33,000  Level Montreal Center
08:38PM 51.2000 -77.1667 38° Northeast 590 679 33,000  Level Montreal Center
08:39PM 51.3167 -76.9833 44° Northeast 590 679 33,000  Level Montreal Center
08:40PM 51.4500 -76.8333 35° Northeast 590 679 33,000  Level Montreal Center
08:41PM 51.5667 -76.6667 42° Northeast 580 667 33,000  Level Montreal Center
08:42PM 51.7000 -76.4833 40° Northeast 580 667 33,000  Level Montreal Center
08:43PM 51.8333 -76.3167 38° Northeast 580 667 33,000  Level Montreal Center
08:44PM 51.9667 -76.1500 38° Northeast 580 667 33,000  Level Montreal Center
08:45PM 52.0833 -76.0000 38° Northeast 580 667 33,000  Level Montreal Center
08:46PM 52.2000 -75.8333 41° Northeast 590 679 33,000  Level Montreal Center
08:47PM 52.3333 -75.6667 37° Northeast 580 667 33,000  Level Montreal Center
08:48PM 52.4500 -75.5000 41° Northeast 590 679 33,000  Level Montreal Center
08:49PM 52.5667 -75.3000 46° Northeast 580 667 33,000  Level Montreal Center
08:50PM 52.7000 -75.1333 37° Northeast 580 667 33,000  Level Montreal Center
08:51PM 52.8167 -74.9333 46° Northeast 580 667 33,000  Level Montreal Center
08:52PM 52.9333 -74.7667 41° Northeast 560 644 33,000  Level Montreal Center
08:53PM 53.0500 -74.5667 46° Northeast 560 644 33,000  Level Montreal Center
08:54PM 53.1500 -74.4000 45° Northeast 560 644 33,000  Level Montreal Center
08:55PM 53.2500 -74.1833 52° Northeast 560 644 33,000  Level Montreal Center
08:56PM 53.3500 -73.9833 50° Northeast 560 644 33,000  Level Montreal Center
08:57PM 53.4500 -73.7833 50° Northeast 560 644 33,000  Level Montreal Center
08:58PM 53.5667 -73.6167 40° Northeast 570 656 33,000  Level Montreal Center
08:59PM 53.6667 -73.4000 52° Northeast 570 656 33,000  Level Montreal Center
09:00PM 53.7833 -73.2000 45° Northeast 570 656 33,000  Level Montreal Center
09:01PM 53.9000 -72.9833 48° Northeast 580 667 33,000  Level Montreal Center
09:02PM 53.9833 -72.7833 55° Northeast 580 667 33,000  Level Montreal Center
09:03PM 54.1000 -72.5667 47° Northeast 580 667 33,000  Level Montreal Center
09:03PM 54.1333 -72.5333 30° Northeast 590 679 33,000  Level Gander Center
09:04PM 54.2167 -72.3667 49° Northeast 590 679 33,000  Level Montreal Center
09:05PM 54.3000 -72.1500 57° Northeast 590 679 33,000  Level Montreal Center
09:06PM 54.4333 -71.9167 45° Northeast 590 679 33,000  Level Montreal Center
09:07PM 54.5333 -71.7000 51° Northeast 580 667 33,000  Level Montreal Center
09:08PM 54.6333 -71.4833 51° Northeast 580 667 33,000  Level Montreal Center
09:09PM 54.7500 -71.2667 47° Northeast 580 667 33,000  Level Montreal Center
09:10PM 54.8333 -71.0500 56° Northeast 580 667 33,000  Level Montreal Center
09:11PM 54.9500 -70.8667 42° Northeast 580 667 33,000  Level Montreal Center
09:12PM 55.0500 -70.6333 53° Northeast 570 656 33,000  Level Montreal Center
09:13PM 55.1500 -70.4167 51° Northeast 580 667 33,000  Level Montreal Center
09:14PM 55.2500 -70.2000 51° Northeast 580 667 33,000  Level Montreal Center
09:15PM 55.3667 -69.9667 49° Northeast 590 679 33,000  Level Montreal Center
09:16PM 55.4667 -69.7833 46° Northeast 590 679 33,000 -120 Level Montreal Center
09:17PM 55.5833 -69.5167 52° Northeast 590 679 32,800 -600 Descending Montreal Center
09:18PM 55.6833 -69.3000 51° Northeast 590 679 31,800 -900 Descending Montreal Center
09:19PM 55.7833 -69.0667 53° Northeast 590 679 31,000 -420 Descending Montreal Center
09:20PM 55.8833 -68.8500 50° Northeast 590 679 31,000  Level Montreal Center
09:21PM 55.9833 -68.6167 52° Northeast 590 679 31,000  Level Montreal Center
09:22PM 56.0833 -68.3833 52° Northeast 580 667 31,000  Level Montreal Center
09:23PM 56.1833 -68.1500 52° Northeast 590 679 31,000  Level Montreal Center
09:24PM 56.2833 -67.9167 52° Northeast 590 679 31,000  Level Montreal Center
09:25PM 56.3833 -67.6833 52° Northeast 590 679 31,000  Level Montreal Center
09:26PM 56.4833 -67.4500 52° Northeast 590 679 31,000  Level Montreal Center
09:27PM 56.5833 -67.2000 54° Northeast 590 679 31,000  Level Montreal Center
09:29PM 56.6809 -66.9462 55° Northeast  Level FlightAware Approximate
09:29PM 56.7667 -66.7000 55° Northeast 580 667 31,000  Level Montreal Center
09:30PM 56.8500 -66.4667 57° Northeast 560 644 31,000  Level Montreal Center
09:30PM 56.9000 -66.4167 29° Northeast 560 644 31,000  Level Gander Center
09:31PM 56.9500 -66.2167 65° Northeast 570 656 31,000  Level Montreal Center
09:32PM 57.0333 -65.9833 57° Northeast 580 667 31,000  Level Montreal Center
09:33PM 57.1333 -65.7333 54° Northeast 580 667 31,000  Level Montreal Center
09:33PM 57.1667 -65.6833 39° Northeast 580 667 31,000  Level Gander Center
09:34PM 57.2167 -65.5000 63° Northeast 580 667 31,000  Level Montreal Center
09:35PM 57.3000 -65.2500 58° Northeast 570 656 31,000  Level Montreal Center
09:35PM 57.3333 -65.2000 39° Northeast 570 656 31,000  Level Gander Center
09:36PM 57.4167 -64.9667 56° Northeast 570 656 31,000  Level Gander Center
09:37PM 57.4833 -64.7500 60° Northeast 570 656 31,000 540 Level Montreal Center
09:38PM 57.5500 -64.4833 65° Northeast 570 656 31,900 780 Climbing Montreal Center
09:39PM 57.6333 -64.2333 58° Northeast 570 656 32,600 660 Climbing Montreal Center
09:39PM 57.6667 -64.1833 39° Northeast 580 667 32,900 240 Climbing Gander Center
09:40PM 57.7500 -63.9000 61° Northeast 590 679 33,000 60 Climbing Gander Center
09:41PM 57.7833 -63.7000 73° East 590 679 33,000  Level Montreal Center
09:42PM 57.8667 -63.4167 61° Northeast 590 679 33,000  Level Montreal Center
09:42PM 57.9000 -63.3833 28° Northeast 590 679 33,000  Level Gander Center
09:43PM 57.9500 -63.1667 66° East 580 667 33,000  Level Montreal Center
09:44PM 58.0167 -62.8833 66° East 570 656 33,000  Level Montreal Center
09:45PM 58.1000 -62.6333 58° Northeast 570 656 33,000  Level Montreal Center
09:45PM 58.1167 -62.6000 47° Northeast 570 656 33,000  Level Gander Center
09:46PM 58.1833 -62.3500 63° Northeast 560 644 33,000  Level Gander Center
09:47PM 58.2500 -62.1167 61° Northeast 560 644 33,000  Level Montreal Center
09:48PM 58.3167 -61.8333 66° East 570 656 33,000  Level Montreal Center
09:48PM 58.3500 -61.7833 38° Northeast 580 667 33,000  Level Gander Center
09:49PM 58.4167 -61.5333 63° Northeast 570 656 33,000  Level Gander Center
09:50PM 58.4500 -61.3000 75° East 560 644 33,000  Level Montreal Center
09:51PM 58.5167 -61.0333 64° Northeast 560 644 33,000  Level Montreal Center
09:51PM 58.5500 -61.0000 28° Northeast 560 644 33,000  Level Gander Center
09:52PM 58.6167 -60.7333 64° Northeast 550 633 33,000  Level Gander Center
09:53PM 58.6500 -60.5167 73° East 550 633 33,000  Level Montreal Center
09:54PM 58.7000 -60.2333 71° East 550 633 33,000  Level Montreal Center
09:55PM 58.7500 -59.9500 71° East 550 633 33,000  Level Montreal Center
09:56PM 58.8000 -59.6833 70° East 550 633 33,000  Level Montreal Center
09:56PM 58.8333 -59.6167 46° Northeast 550 633 33,000  Level Gander Center
09:57PM 58.8500 -59.3167 84° East 550 633 33,000  Level Gander Center
09:58PM 58.9000 -59.0333 71° East 550 633 33,000  Level Gander Center
09:59PM 58.9500 -58.7667 70° East 550 633 33,000  Level Gander Center
10:00PM 58.9833 -58.4667 78° East 550 633 33,000  Level Gander Center
10:01PM 59.0333 -58.1667 72° East 550 633 33,000  Level Gander Center
10:02PM 59.0667 -57.9500 73° East 560 644 33,000  Level Gander Center
10:03PM 59.1000 -57.6500 78° East 560 644 33,000  Level Gander Center
10:04PM 59.1500 -57.3833 70° East 560 644 33,000  Level Gander Center
10:05PM 59.2000 -57.0167 75° East 560 644 33,000  Level Gander Center
10:06PM 59.2500 -56.7167 72° East 560 644 33,000  Level Gander Center
10:07PM 59.2833 -56.4500 76° East 550 633 33,000  Level Gander Center
10:08PM 59.3167 -56.1500 78° East 540 621 33,000  Level Gander Center
10:09PM 59.3667 -55.8833 70° East 530 610 33,000  Level Gander Center
10:10PM 59.3833 -55.5833 84° East 530 610 33,000  Level Gander Center
10:11PM 59.4167 -55.3167 76° East 540 621 33,000  Level Gander Center
10:12PM 59.4500 -55.0167 78° East 540 621 33,000  Level Gander Center
10:13PM 59.5000 -54.7500 70° East 540 621 33,000  Level Gander Center
10:15PM 59.5384 -54.4240 76° East  Level FlightAware Approximate
10:22PM 59.7576 -52.5129 76° East  Level FlightAware Approximate
10:23PM 59.7867 -52.2378 78° East  Level FlightAware Approximate
10:24PM 59.8151 -51.9623 78° East  Level FlightAware Approximate
10:25PM 59.8430 -51.6864 79° East  Level FlightAware Approximate
10:26PM 59.8703 -51.4100 79° East  Level FlightAware Approximate
10:27PM 59.8971 -51.1331 79° East  Level FlightAware Approximate
10:28PM 59.9232 -50.8558 79° East  Level FlightAware Approximate
10:29PM 59.9488 -50.5780 79° East  Level FlightAware Approximate
10:30PM 59.9738 -50.2999 80° East  Level FlightAware Approximate
10:31PM 59.9982 -50.0213 80° East  Level FlightAware Approximate
10:32PM 60.0095 -49.7400 86° East  Level FlightAware Approximate
10:33PM 60.0193 -49.4583 86° East  Level FlightAware Approximate
10:34PM 60.0284 -49.1764 86° East  Level FlightAware Approximate
10:35PM 60.0370 -48.8944 86° East  Level FlightAware Approximate
10:36PM 60.0449 -48.6123 87° East  Level FlightAware Approximate
10:37PM 60.0523 -48.3300 87° East  Level FlightAware Approximate
10:38PM 60.0590 -48.0475 87° East  Level FlightAware Approximate
10:39PM 60.0652 -47.7650 87° East  Level FlightAware Approximate
10:40PM 60.0707 -47.4824 88° East  Level FlightAware Approximate
10:41PM 60.0757 -47.1997 88° East  Level FlightAware Approximate
10:42PM 60.0800 -46.9169 88° East  Level FlightAware Approximate
10:43PM 60.0837 -46.6340 89° East  Level FlightAware Approximate
10:44PM 60.0869 -46.3511 89° East  Level FlightAware Approximate
10:45PM 60.0895 -46.0681 89° East  Level FlightAware Approximate
10:46PM 60.0915 -45.7851 89° East  Level FlightAware Approximate
10:47PM 60.0929 -45.5021 89° East  Level FlightAware Approximate
10:48PM 60.0937 -45.2190 90° East  Level FlightAware Approximate
10:49PM 60.0939 -44.9359 90° East  Level FlightAware Approximate
10:50PM 60.0935 -44.6529 90° East  Level FlightAware Approximate
10:51PM 60.0925 -44.3698 90° East  Level FlightAware Approximate
10:52PM 60.0908 -44.0868 91° East  Level FlightAware Approximate
10:53PM 60.0886 -43.8038 91° East  Level FlightAware Approximate
10:54PM 60.0858 -43.5209 91° East  Level FlightAware Approximate
10:55PM 60.0823 -43.2379 91° East  Level FlightAware Approximate
10:56PM 60.0783 -42.9551 92° East  Level FlightAware Approximate
10:57PM 60.0737 -42.6724 92° East  Level FlightAware Approximate
10:58PM 60.0684 -42.3897 92° East  Level FlightAware Approximate
10:59PM 60.0626 -42.1071 92° East  Level FlightAware Approximate
11:00PM 60.0562 -41.8246 92° East  Level FlightAware Approximate
11:01PM 60.0491 -41.5423 93° East  Level FlightAware Approximate
11:02PM 60.0415 -41.2600 93° East  Level FlightAware Approximate
11:03PM 60.0332 -40.9779 93° East  Level FlightAware Approximate
11:04PM 60.0244 -40.6960 93° East  Level FlightAware Approximate
11:05PM 60.0150 -40.4142 94° East  Level FlightAware Approximate
11:06PM 60.0049 -40.1325 94° East  Level FlightAware Approximate
11:07PM 59.9911 -39.8517 97° East  Level FlightAware Approximate
11:08PM 59.9737 -39.5717 97° East  Level FlightAware Approximate
11:09PM 59.9558 -39.2921 97° East  Level FlightAware Approximate
11:10PM 59.9373 -39.0127 97° East  Level FlightAware Approximate
11:11PM 59.9182 -38.7336 98° East  Level FlightAware Approximate
11:12PM 59.8985 -38.4549 98° East  Level FlightAware Approximate
11:13PM 59.8782 -38.1765 98° East  Level FlightAware Approximate
11:14PM 59.8573 -37.8985 98° East  Level FlightAware Approximate
11:15PM 59.8358 -37.6208 99° East  Level FlightAware Approximate
11:16PM 59.8138 -37.3434 99° East  Level FlightAware Approximate
11:17PM 59.7912 -37.0665 99° East  Level FlightAware Approximate
11:18PM 59.7680 -36.7899 99° East  Level FlightAware Approximate
11:19PM 59.7442 -36.5137 100° East  Level FlightAware Approximate
11:20PM 59.7198 -36.2379 100° East  Level FlightAware Approximate
11:21PM 59.6949 -35.9625 100° East  Level FlightAware Approximate
11:22PM 59.6693 -35.6876 100° East  Level FlightAware Approximate
11:23PM 59.6432 -35.4130 101° East  Level FlightAware Approximate
11:24PM 59.6166 -35.1389 101° East  Level FlightAware Approximate
11:25PM 59.5893 -34.8652 101° East  Level FlightAware Approximate
11:26PM 59.5615 -34.5920 101° East  Level FlightAware Approximate
11:27PM 59.5331 -34.3192 101° East  Level FlightAware Approximate
11:28PM 59.5042 -34.0469 102° East  Level FlightAware Approximate
11:29PM 59.4747 -33.7751 102° East  Level FlightAware Approximate
11:30PM 59.4446 -33.5037 102° East  Level FlightAware Approximate
11:31PM 59.4140 -33.2328 102° East  Level FlightAware Approximate
11:32PM 59.3828 -32.9624 103° East  Level FlightAware Approximate
11:33PM 59.3511 -32.6926 103° East  Level FlightAware Approximate
11:34PM 59.3187 -32.4232 103° East  Level FlightAware Approximate
11:35PM 59.2859 -32.1543 103° East  Level FlightAware Approximate
11:36PM 59.2525 -31.8860 104° East  Level FlightAware Approximate
11:37PM 59.2185 -31.6182 104° East  Level FlightAware Approximate
11:38PM 59.1840 -31.3509 104° East  Level FlightAware Approximate
11:39PM 59.1489 -31.0842 104° East  Level FlightAware Approximate
11:40PM 59.1133 -30.8180 104° East  Level FlightAware Approximate
11:41PM 59.0772 -30.5524 105° East  Level FlightAware Approximate
11:42PM 59.0405 -30.2874 105° East  Level FlightAware Approximate
11:43PM 59.0033 -30.0229 105° East  Level FlightAware Approximate
11:44PM 58.9634 -29.7602 106° East  Level FlightAware Approximate
11:45PM 58.9229 -29.4981 107° East  Level FlightAware Approximate
11:46PM 58.8818 -29.2367 107° East  Level FlightAware Approximate
11:47PM 58.8401 -28.9759 107° East  Level FlightAware Approximate
11:48PM 58.7980 -28.7158 107° East  Level FlightAware Approximate
11:49PM 58.7553 -28.4562 107° East  Level FlightAware Approximate
11:50PM 58.7122 -28.1974 108° East  Level FlightAware Approximate
11:51PM 58.6685 -27.9391 108° East  Level FlightAware Approximate
11:52PM 58.6242 -27.6815 108° East  Level FlightAware Approximate
11:53PM 58.5795 -27.4246 108° East  Level FlightAware Approximate
11:54PM 58.5343 -27.1683 109° East  Level FlightAware Approximate
11:55PM 58.4885 -26.9127 109° East  Level FlightAware Approximate
11:56PM 58.4423 -26.6578 109° East  Level FlightAware Approximate
11:57PM 58.3955 -26.4035 109° East  Level FlightAware Approximate
11:58PM 58.3483 -26.1499 109° East  Level FlightAware Approximate
11:59PM 58.3005 -25.8970 110° East  Level FlightAware Approximate
12:00AM 58.2522 -25.6448 110° East  Level FlightAware Approximate
12:01AM 58.2035 -25.3933 110° East  Level FlightAware Approximate
12:02AM 58.1542 -25.1424 110° East  Level FlightAware Approximate
12:03AM 58.1045 -24.8923 111° Southeast  Level FlightAware Approximate
12:04AM 58.0542 -24.6428 111° Southeast  Level FlightAware Approximate
12:05AM 58.0035 -24.3941 111° Southeast  Level FlightAware Approximate
12:06AM 57.9523 -24.1461 111° Southeast  Level FlightAware Approximate
12:07AM 57.9007 -23.8988 111° Southeast  Level FlightAware Approximate
12:08AM 57.8485 -23.6521 112° Southeast  Level FlightAware Approximate
12:09AM 57.7958 -23.4062 112° Southeast  Level FlightAware Approximate
12:10AM 57.7427 -23.1611 112° Southeast  Level FlightAware Approximate
12:11AM 57.6892 -22.9166 112° Southeast  Level FlightAware Approximate
12:12AM 57.6351 -22.6729 112° Southeast  Level FlightAware Approximate
12:13AM 57.5806 -22.4299 113° Southeast  Level FlightAware Approximate
12:14AM 57.5256 -22.1876 113° Southeast  Level FlightAware Approximate
12:15AM 57.4702 -21.9461 113° Southeast  Level FlightAware Approximate
12:16AM 57.4142 -21.7053 113° Southeast  Level FlightAware Approximate
12:17AM 57.3579 -21.4653 113° Southeast  Level FlightAware Approximate
12:18AM 57.3011 -21.2259 114° Southeast  Level FlightAware Approximate
12:19AM 57.2438 -20.9874 114° Southeast  Level FlightAware Approximate
12:20AM 57.1861 -20.7495 114° Southeast  Level FlightAware Approximate
12:21AM 57.1279 -20.5124 114° Southeast  Level FlightAware Approximate
12:22AM 57.0693 -20.2761 114° Southeast  Level FlightAware Approximate
12:23AM 57.0102 -20.0405 115° Southeast  Level FlightAware Approximate
12:24AM 56.9775 -19.7896 101° East  Level FlightAware Approximate
12:25AM 56.9499 -19.5357 101° East  Level FlightAware Approximate
12:26AM 56.9218 -19.2822 101° East  Level FlightAware Approximate
12:27AM 56.8932 -19.0291 102° East  Level FlightAware Approximate
12:28AM 56.8641 -18.7764 102° East  Level FlightAware Approximate
12:29AM 56.8344 -18.5240 102° East  Level FlightAware Approximate
12:30AM 56.8042 -18.2721 102° East  Level FlightAware Approximate
12:31AM 56.7736 -18.0206 102° East  Level FlightAware Approximate
12:32AM 56.7424 -17.7695 103° East  Level FlightAware Approximate
12:33AM 56.7107 -17.5188 103° East  Level FlightAware Approximate
12:34AM 56.6786 -17.2686 103° East  Level FlightAware Approximate
12:35AM 56.6459 -17.0187 103° East  Level FlightAware Approximate
12:36AM 56.6130 -16.7692 103° East  Level FlightAware Approximate
12:37AM 56.5796 -16.5201 104° East  Level FlightAware Approximate
12:38AM 56.5457 -16.2715 104° East  Level FlightAware Approximate
12:39AM 56.5114 -16.0233 104° East  Level FlightAware Approximate
12:40AM 56.4765 -15.7756 104° East  Level FlightAware Approximate
12:41AM 56.4411 -15.5283 104° East  Level FlightAware Approximate
12:42AM 56.4053 -15.2815 105° East  Level FlightAware Approximate
12:43AM 56.3689 -15.0352 105° East  Level FlightAware Approximate
12:44AM 56.3321 -14.7893 105° East  Level FlightAware Approximate
12:45AM 56.2948 -14.5439 105° East  Level FlightAware Approximate
12:46AM 56.2570 -14.2990 105° East  Level FlightAware Approximate
12:47AM 56.2187 -14.0546 106° East  Level FlightAware Approximate
12:48AM 56.1799 -13.8106 106° East  Level FlightAware Approximate
12:49AM 56.1407 -13.5672 106° East  Level FlightAware Approximate
12:50AM 56.1009 -13.3243 106° East  Level FlightAware Approximate
12:51AM 56.0607 -13.0818 106° East  Level FlightAware Approximate
12:52AM 56.0201 -12.8399 107° East  Level FlightAware Approximate
12:52AM 55.6030 -11.7550 107° East 525 604 33,000  Level FlightAware
12:53AM 55.9789 -12.5985 107° East  Level FlightAware Approximate
12:53AM 55.5740 -11.5610 105° East 527 606 33,000  Level FlightAware
12:53AM 55.5480 -11.3940 105° East 528 608 33,000  Level FlightAware
12:54AM 55.5200 -11.2080 105° East 530 610 33,000  Level FlightAware
12:55AM 55.4950 -11.0450 105° East 530 610 33,000  Level FlightAware
12:55AM 55.4680 -10.8730 105° East 528 608 33,000  Level FlightAware
12:56AM 55.4390 -10.6920 106° East 527 606 33,000  Level FlightAware
12:57AM 55.4130 -10.5280 106° East 528 608 33,000  Level FlightAware
12:58AM 55.3820 -10.3400 106° East 532 612 33,000  Level FlightAware
12:58AM 55.3550 -10.1730 106° East 534 615 33,000  Level FlightAware
12:59AM 55.3260 -10.0030 107° East 531 611 33,000  Level FlightAware
01:00AM 55.2910 -9.8250 109° East 530 610 33,000  Level FlightAware
01:00AM 55.2580 -9.6640 110° East 531 611 33,000  Level FlightAware
01:01AM 55.2220 -9.4800 109° East 531 611 33,000  Level FlightAware
01:02AM 55.1930 -9.3400 110° East 530 610 33,000  Level FlightAware
01:02AM 55.1560 -9.1560 109° East 529 609 33,000 -1,440 Level FlightAware
01:03AM 55.1362 -8.9768 109° East 466 536 31,500 -2,400 Descending FlightAware UK
01:03AM 55.1218 -8.9045 109° East 468 539 31,500 4,500 Level FlightAware UK
01:03AM 55.1240 -8.9960 109° East 529 609 33,000 -360 Climbing FlightAware
01:03AM 55.1073 -8.8325 109° East 466 536 31,400 -2,700 Descending FlightAware UK
01:04AM 55.0925 -8.7606 110° East 466 536 31,500 3,300 Climbing FlightAware UK
01:04AM 55.0860 -8.8130 110° East 528 608 33,000  Climbing FlightAware
01:04AM 55.0683 -8.6409 110° East 468 539 31,500 -2,460 Descending FlightAware UK
01:04AM 55.0534 -8.5685 110° East 468 539 31,500 3,420 Level FlightAware UK
01:05AM 55.0490 -8.6350 110° East 527 606 33,000  Climbing FlightAware
01:05AM 55.0337 -8.4734 110° East 468 539 31,500 -2,700 Descending FlightAware UK
01:05AM 55.0189 -8.4023 110° East 468 539 31,500 4,680 Level FlightAware UK
01:05AM 55.0200 -8.4970 110° East 525 604 33,000  Climbing FlightAware
01:05AM 55.0041 -8.3312 110° East 468 539 31,500 -2,580 Descending FlightAware UK
01:06AM 54.9895 -8.2604 110° East 466 536 31,500 2,700 Level FlightAware UK
01:06AM 54.9770 -8.2950 110° East 524 603 33,000  Climbing FlightAware
01:06AM 54.9647 -8.1423 110° East 466 536 31,500 -2,760 Descending FlightAware UK
01:07AM 54.9499 -8.0716 110° East 466 536 31,500 3,600 Level FlightAware UK
01:07AM 54.9420 -8.1280 110° East 521 600 33,000  Climbing FlightAware
01:07AM 54.9298 -7.9776 110° East 464 534 31,500 -2,580 Descending FlightAware UK
01:07AM 54.9147 -7.9071 110° East 464 534 31,500 3,900 Level FlightAware UK
01:07AM 54.9090 -7.9790 110° East 525 604 33,000  Climbing FlightAware
01:08AM 54.8948 -7.8131 110° East 464 534 31,500 -2,460 Descending FlightAware UK
01:08AM 54.8798 -7.7427 110° East 462 532 31,500 4,260 Level FlightAware UK
01:08AM 54.8760 -7.8250 110° East 525 604 33,000 -360 Climbing FlightAware
01:08AM 54.8647 -7.6724 110° East 464 534 31,400 -2,940 Descending FlightAware UK
01:09AM 54.8497 -7.6021 110° East 464 534 31,400 3,180 Level FlightAware UK
01:09AM 54.8380 -7.6490 110° East 524 603 33,000 180 Climbing FlightAware
01:09AM 54.8244 -7.4853 110° East 464 534 31,500 -2,520 Descending FlightAware UK
01:09AM 54.8089 -7.4145 111° Southeast 464 534 31,500 3,300 Level FlightAware UK
01:09AM 54.7980 -7.4700 111° Southeast 525 604 33,000  Climbing FlightAware
01:10AM 54.7885 -7.3210 111° Southeast 464 534 31,500 -2,760 Descending FlightAware UK
01:10AM 54.7733 -7.2507 111° Southeast 464 534 31,500 3,600 Level FlightAware UK
01:10AM 54.7630 -7.3130 111° Southeast 526 605 33,000  Climbing FlightAware
01:10AM 54.7528 -7.1572 111° Southeast 464 534 31,500 -2,580 Descending FlightAware UK
01:11AM 54.7372 -7.0872 111° Southeast 464 534 31,500 3,900 Level FlightAware UK
01:11AM 54.7300 -7.1630 111° Southeast 526 605 33,000  Climbing FlightAware
01:11AM 54.7165 -6.9929 111° Southeast 466 536 31,500 -2,460 Descending FlightAware UK
01:11AM 54.7012 -6.9229 111° Southeast 466 536 31,500 3,420 Level FlightAware UK
01:12AM 54.6890 -6.9820 111° Southeast 527 606 33,000  Climbing FlightAware
01:12AM 54.6802 -6.8295 111° Southeast 466 536 31,500 -2,700 Descending FlightAware UK
01:12AM 54.6644 -6.7596 111° Southeast 464 534 31,500 3,720 Level FlightAware UK
01:12AM 54.6540 -6.8290 111° Southeast 527 606 33,000  Climbing FlightAware
01:13AM 54.6437 -6.6664 111° Southeast 466 536 31,500 -2,520 Descending FlightAware UK
01:13AM 54.6279 -6.5967 111° Southeast 466 536 31,500 4,080 Level FlightAware UK
01:13AM 54.6180 -6.6690 111° Southeast 527 606 33,000  Climbing FlightAware
01:13AM 54.6070 -6.5038 111° Southeast 466 536 31,500 -2,400 Descending FlightAware UK
01:14AM 54.5907 -6.4342 112° Southeast 466 536 31,500 3,600 Level FlightAware UK
01:14AM 54.5770 -6.4930 112° Southeast 527 606 33,000  Climbing FlightAware
01:14AM 54.5695 -6.3413 112° Southeast 466 536 31,500 -2,580 Descending FlightAware UK
01:14AM 54.5535 -6.2717 112° Southeast 466 536 31,500 3,900 Level FlightAware UK
01:14AM 54.5420 -6.3390 112° Southeast 528 608 33,000  Climbing FlightAware
01:15AM 54.5321 -6.1788 112° Southeast 466 536 31,500 -2,460 Descending FlightAware UK
01:15AM 54.5162 -6.1094 112° Southeast 466 536 31,500 3,420 Level FlightAware UK
01:15AM 54.5010 -6.1670 112° Southeast 528 608 33,000  Climbing FlightAware
01:15AM 54.4947 -6.0169 112° Southeast 466 536 31,500 -2,700 Descending FlightAware UK
01:16AM 54.4786 -5.9476 112° Southeast 466 536 31,500 3,720 Level FlightAware UK
01:16AM 54.4660 -6.0150 112° Southeast 527 606 33,000  Climbing FlightAware
01:16AM 54.4569 -5.8554 112° Southeast 466 536 31,500 -2,520 Descending FlightAware UK
01:16AM 54.4407 -5.7861 112° Southeast 466 536 31,500 3,300 Level FlightAware UK
01:16AM 54.4230 -5.8370 112° Southeast 528 608 33,000  Climbing FlightAware
01:17AM 54.4188 -5.6931 112° Southeast 466 536 31,500 -2,760 Descending FlightAware UK
01:17AM 54.4025 -5.6239 112° Southeast 468 539 31,500 3,600 Level FlightAware UK
01:17AM 54.3860 -5.6810 112° Southeast 528 608 33,000  Climbing FlightAware
01:17AM 54.3806 -5.5318 112° Southeast 470 541 31,500 -2,580 Descending FlightAware UK
01:18AM 54.3643 -5.4629 112° Southeast 470 541 31,500 3,900 Level FlightAware UK
01:18AM 54.3500 -5.5300 112° Southeast 527 606 33,000  Climbing FlightAware
01:18AM 54.3425 -5.3709 112° Southeast 470 541 31,500 -2,460 Descending FlightAware UK
01:18AM 54.3260 -5.3022 112° Southeast 468 539 31,500 3,420 Level FlightAware UK
01:19AM 54.3080 -5.3530 112° Southeast 528 608 33,000  Climbing FlightAware
01:19AM 54.3040 -5.2105 112° Southeast 468 539 31,500 -2,700 Descending FlightAware UK
01:19AM 54.2875 -5.1418 112° Southeast 466 536 31,500 3,720 Level FlightAware UK
01:19AM 54.2720 -5.2040 112° Southeast 527 606 33,000  Climbing FlightAware
01:20AM 54.2654 -5.0503 112° Southeast 468 539 31,500 -2,520 Descending FlightAware UK
01:20AM 54.2487 -4.9818 113° Southeast 468 539 31,500 4,080 Level FlightAware UK
01:20AM 54.2330 -5.0480 113° Southeast 527 606 33,000  Climbing FlightAware
01:20AM 54.2264 -4.8897 113° Southeast 470 541 31,500 -2,400 Descending FlightAware UK
01:21AM 54.2098 -4.8222 113° Southeast 470 541 31,500 3,720 Level FlightAware UK
01:21AM 54.1910 -4.8760 113° Southeast 526 605 33,000  Climbing FlightAware
01:21AM 54.1873 -4.7313 113° Southeast 470 541 31,500  Descending FlightAware UK
01:21AM 54.1600 -4.7510 113° Southeast 526 605 33,000  Climbing FlightAware
01:21AM 54.1703 -4.6624 113° Southeast 470 541 31,500 -3,600 Descending FlightAware UK
01:22AM 54.1479 -4.5715 113° Southeast 468 539 31,500  Level FlightAware UK
01:22AM 54.1310 -4.5043 113° Southeast 466 536 31,500 3,600 Level FlightAware UK
01:22AM 54.1090 -4.5440 113° Southeast 525 604 33,000  Climbing FlightAware
01:22AM 54.1025 -4.3902 113° Southeast 468 539 31,500  Descending FlightAware UK
01:23AM 54.0710 -4.3930 113° Southeast 525 604 33,000  Climbing FlightAware
01:23AM 54.0683 -4.2543 113° Southeast 470 541 31,500 -2,460 Descending FlightAware UK
01:23AM 54.0511 -4.1865 113° Southeast 472 543 31,500 4,260 Level FlightAware UK
01:23AM 54.0320 -4.2400 113° Southeast 524 603 33,000  Climbing FlightAware
01:24AM 54.0338 -4.1189 113° Southeast 472 543 31,500 -2,760 Descending FlightAware UK
01:24AM 54.0164 -4.0506 113° Southeast 472 543 31,500 3,000 Level FlightAware UK
01:24AM 53.9910 -4.0770 113° Southeast 524 603 33,000  Climbing FlightAware
01:24AM 53.9877 -3.9380 113° Southeast 470 541 31,500 -2,520 Descending FlightAware UK
01:25AM 53.9706 -3.8706 113° Southeast 470 541 31,500 4,080 Level FlightAware UK
01:25AM 53.9520 -3.9250 113° Southeast 525 604 33,000  Climbing FlightAware
01:25AM 53.9503 -3.7782 113° Southeast 470 541 31,500 -2,400 Descending FlightAware UK
01:25AM 53.9361 -3.7080 109° East 470 541 31,500 4,500 Level FlightAware UK
01:25AM 53.9200 -3.7740 109° East 529 609 33,000  Climbing FlightAware
01:26AM 53.9223 -3.6376 109° East 470 541 31,500 -2,700 Descending FlightAware UK
01:26AM 53.9090 -3.5668 108° East 472 543 31,500 3,060 Level FlightAware UK
01:26AM 53.8860 -3.5920 108° East 529 609 33,000 -240 Climbing FlightAware
01:27AM 53.8870 -3.4479 108° East 468 539 31,400 -2,460 Descending FlightAware UK
01:27AM 53.8741 -3.3779 107° East 466 536 31,500 4,560 Climbing FlightAware UK
01:27AM 53.8560 -3.4330 107° East 529 609 33,000  Climbing FlightAware
01:27AM 53.8611 -3.3072 107° East 466 536 31,500 -2,940 Descending FlightAware UK
01:27AM 53.8481 -3.2357 107° East 466 536 31,400 3,000 Descending FlightAware UK
01:28AM 53.8240 -3.2570 107° East 528 608 33,000  Climbing FlightAware
01:28AM 53.8262 -3.1182 107° East 464 534 31,400 -2,700 Descending FlightAware UK
01:28AM 53.8132 -3.0477 107° East 464 534 31,400 4,320 Level FlightAware UK
01:28AM 53.7960 -3.1010 107° East 527 606 33,000  Climbing FlightAware
01:29AM 53.7957 -2.9531 107° East 462 532 31,400 -2,580 Descending FlightAware UK
01:29AM 53.7827 -2.8829 107° East 462 532 31,400 3,840 Level FlightAware UK
01:29AM 53.7630 -2.9230 107° East 526 605 33,000 240 Climbing FlightAware
01:29AM 53.7653 -2.7893 107° East 462 532 31,500 -2,760 Descending FlightAware UK
01:30AM 53.7521 -2.7183 107° East 460 529 31,400 3,900 Descending FlightAware UK
01:30AM 53.7330 -2.7640 107° East 526 605 33,000 240 Climbing FlightAware
01:30AM 53.7344 -2.6247 107° East 462 532 31,500 -2,460 Descending FlightAware UK
01:30AM 53.7212 -2.5544 108° East 462 532 31,500 4,260 Level FlightAware UK
01:30AM 53.7050 -2.6110 108° East 528 608 33,000  Climbing FlightAware
01:31AM 53.7080 -2.4842 108° East 462 532 31,500 -2,760 Descending FlightAware UK
01:31AM 53.6947 -2.4140 108° East 462 532 31,500 3,300 Level FlightAware UK
01:31AM 53.6716 -2.4306 108° East 529 609 33,000  Climbing FlightAware ADS-B
01:31AM 53.6767 -2.3194 108° East 462 532 31,500  Descending FlightAware UK
01:32AM 53.6482 -2.3075 108° East 530 610 33,000  Climbing FlightAware ADS-B
01:32AM 53.6493 -2.1790 108° East 462 532 31,500  Descending FlightAware UK
01:32AM 53.6252 -2.1874 108° East 530 610 33,000  Climbing FlightAware ADS-B
01:32AM 53.6264 -2.0621 108° East 462 532 31,500  Descending FlightAware UK
01:33AM 53.6021 -2.0672 108° East 530 610 33,000  Climbing FlightAware ADS-B
01:33AM 53.6033 -1.9454 108° East 464 534 31,500  Descending FlightAware UK
01:33AM 53.5774 -1.9400 108° East 530 610 33,000  Climbing FlightAware ADS-B
01:33AM 53.5803 -1.8285 108° East 466 536 31,500  Descending FlightAware UK
01:34AM 53.5547 -1.8223 108° East 531 611 33,000  Climbing FlightAware ADS-B
01:34AM 53.5570 -1.7108 108° East 466 536 31,500  Descending FlightAware UK
01:34AM 53.5295 -1.6929 108° East 531 611 33,000  Climbing FlightAware ADS-B
01:35AM 53.5291 -1.5707 108° East 464 534 31,500 -2,100 Descending FlightAware UK
01:35AM 53.5101 -1.4766 109° East 464 534 31,500 2,520 Level FlightAware UK
01:35AM 53.4880 -1.4822 109° East 531 611 33,000  Climbing FlightAware ADS-B
01:35AM 53.4864 -1.3603 109° East 466 536 31,500  Descending FlightAware UK
01:36AM 53.4605 -1.3444 109° East 531 611 33,000  Climbing FlightAware ADS-B
01:36AM 53.4580 -1.2207 109° East 466 536 31,500  Descending FlightAware UK
01:36AM 53.4353 -1.2167 109° East 530 610 33,000  Climbing FlightAware ADS-B
01:37AM 53.4342 -1.1044 109° East 466 536 31,500  Descending FlightAware UK
01:37AM 53.4112 -1.0969 109° East 531 611 33,000  Climbing FlightAware ADS-B
01:37AM 53.4101 -0.9875 109° East 466 536 31,500 -2,700 Descending FlightAware UK
01:37AM 53.3957 -0.9180 109° East 468 539 31,500 4,500 Level FlightAware UK
01:37AM 53.3860 -0.9720 109° East 530 610 33,000 4,680 Climbing FlightAware
01:38AM 53.3698 -0.8908 108° East 531 611 33,000 -2,700 Level FlightAware ADS-B
01:38AM 53.3668 -0.7789 108° East 468 539 31,500  Descending FlightAware UK
01:38AM 53.3459 -0.7721 108° East 531 611 33,000 2,520 Climbing FlightAware ADS-B
01:39AM 53.3297 -0.6885 108° East 535 616 33,000 -2,280 Level FlightAware ADS-B
01:39AM 53.3286 -0.5667 108° East 468 539 31,500  Descending FlightAware UK
01:39AM 53.3127 -0.5618 108° East 536 617 33,000  Climbing FlightAware ADS-B
01:39AM 53.3118 -0.4450 108° East 468 539 31,500  Descending FlightAware UK
01:40AM 53.2963 -0.4379 108° East 537 618 33,000  Climbing FlightAware ADS-B
01:40AM 53.2951 -0.3245 108° East 468 539 31,500  Descending FlightAware UK
01:40AM 53.2800 -0.3163 108° East 536 617 33,000  Climbing FlightAware ADS-B
01:40AM 53.2780 -0.2031 108° East 468 539 31,500  Descending FlightAware UK
01:41AM 53.2635 -0.1947 108° East 536 617 33,000  Climbing FlightAware ADS-B
01:41AM 53.2573 -0.0588 108° East 468 539 31,500  Descending FlightAware UK
01:41AM 53.2468 -0.0719 108° East 537 618 33,000  Climbing FlightAware ADS-B
01:41AM 53.2432 0.0381 108° East 468 539 31,500  Descending FlightAware UK
01:42AM 53.2299 0.0498 108° East 536 617 33,000  Climbing FlightAware ADS-B
01:42AM 53.2259 0.1584 108° East 468 539 31,500  Descending FlightAware UK
01:42AM 53.2120 0.1784 108° East 537 618 33,000  Climbing FlightAware ADS-B
01:42AM 53.2081 0.2794 108° East 468 539 31,500  Descending FlightAware UK
01:43AM 53.1945 0.3042 108° East 537 618 33,000 1,860 Climbing FlightAware ADS-B
01:43AM 53.1767 0.4301 103° East 537 618 33,000  Level FlightAware ADS-B
01:44AM 53.1592 0.5526 103° East 537 618 33,000 -1,920 Level FlightAware ADS-B
01:44AM 53.1505 0.6648 103° East 468 539 31,500  Descending FlightAware UK
01:44AM 53.1412 0.6764 103° East 538 619 33,000  Climbing FlightAware ADS-B
01:45AM 53.1284 0.8091 103° East 468 539 31,500  Descending FlightAware UK
01:45AM 53.1213 0.8128 103° East 539 620 33,000 2,040 Climbing FlightAware ADS-B
01:45AM 53.1024 0.9406 104° East 539 620 33,000 -1,860 Level FlightAware ADS-B
01:46AM 53.0907 1.0500 104° East 468 539 31,500  Descending FlightAware UK
01:46AM 53.0839 1.0639 104° East 538 619 33,000  Climbing FlightAware ADS-B
01:46AM 53.0679 1.1939 104° East 470 541 31,500  Descending FlightAware UK
01:46AM 53.0655 1.1857 104° East 538 619 33,000 2,880 Climbing FlightAware ADS-B
01:47AM 53.0509 1.2763 105° East 537 618 33,000  Level FlightAware ADS-B
01:47AM 53.0394 1.3345 108° East 534 615 33,000  Level FlightAware ADS-B
01:47AM 53.0225 1.4060 111° Southeast 530 610 33,000 -2,040 Level FlightAware ADS-B
01:48AM 52.9922 1.5401 111° Southeast 470 541 31,500  Descending FlightAware UK
01:48AM 52.9905 1.5277 111° Southeast 530 610 33,000  Climbing FlightAware ADS-B
01:48AM 52.9619 1.6523 111° Southeast 470 541 31,500  Descending FlightAware UK
01:48AM 52.9594 1.6476 111° Southeast 531 611 33,000  Climbing FlightAware ADS-B
01:49AM 52.9374 1.7416 111° Southeast 470 541 31,500  Descending FlightAware UK
01:49AM 52.9297 1.7608 111° Southeast 530 610 33,000  Climbing FlightAware ADS-B
01:49AM 52.9010 1.8756 111° Southeast 472 543 31,500  Descending FlightAware UK
01:49AM 52.8967 1.8851 111° Southeast 531 611 33,000  Climbing FlightAware ADS-B
01:50AM 52.8707 1.9867 111° Southeast 472 543 31,500  Descending FlightAware UK
01:50AM 52.8627 2.0128 111° Southeast 530 610 33,000  Climbing FlightAware ADS-B
01:50AM 52.8335 2.1202 111° Southeast 472 543 31,500  Descending FlightAware UK
01:51AM 52.8197 2.1860 111° Southeast 536 617 33,000 2,460 Climbing FlightAware ADS-B
01:51AM 52.8153 2.2218 101° East 539 620 33,000 -3,360 Level FlightAware ADS-B
01:51AM 52.7950 2.3305 101° East 470 541 31,500 -2,520 Descending FlightAware UK
01:51AM 52.7862 2.4029 101° East 472 543 31,500  Level FlightAware UK
01:52AM 52.7770 2.4760 102° East 472 543 31,500  Level FlightAware UK
01:52AM 52.7673 2.5481 103° East 472 543 31,500  Level FlightAware UK
01:52AM 52.7565 2.6204 104° East 472 543 31,500  Level FlightAware UK
01:53AM 52.7422 2.6904 109° East 470 541 31,500  Level FlightAware UK
01:53AM 52.7280 2.7592 109° East 470 541 31,500 1,860 Level FlightAware UK
01:53AM 52.7190 2.8200 109° East 527 606 33,000  Climbing FlightAware
01:54AM 52.6806 2.9371 109° East 468 539 31,500 -2,400 Descending FlightAware UK
01:54AM 52.6627 3.0032 114° Southeast 468 539 31,500 3,600 Level FlightAware UK
01:54AM 52.6760 2.9860 114° Southeast 525 604 33,000  Climbing FlightAware
01:55AM 52.6266 3.1346 114° Southeast 466 536 31,500  Descending FlightAware UK
01:55AM 52.6370 3.1320 114° Southeast 523 602 33,000  Climbing FlightAware
01:55AM 52.5783 3.3092 114° Southeast 466 536 31,500  Descending FlightAware UK
01:56AM 52.5920 3.3000 114° Southeast 522 601 33,000  Climbing FlightAware
01:56AM 52.5359 3.4622 114° Southeast 464 534 31,500  Descending FlightAware UK
01:56AM 52.5530 3.4430 114° Southeast 521 600 33,000  Climbing FlightAware
01:57AM 52.5116 3.5489 114° Southeast 464 534 31,500 -2,520 Descending FlightAware UK
01:57AM 52.4933 3.6137 115° Southeast 464 534 31,500 3,300 Level FlightAware UK
01:57AM 52.5090 3.6050 115° Southeast 521 600 33,000  Climbing FlightAware
01:57AM 52.4565 3.7432 115° Southeast 464 534 31,500  Descending FlightAware UK
01:58AM 52.4700 3.7470 115° Southeast 522 601 33,000  Climbing FlightAware
01:58AM 52.4197 3.8726 115° Southeast 466 536 31,500  Descending FlightAware UK
01:58AM 52.4310 3.8870 115° Southeast 523 602 33,000  Climbing FlightAware
01:59AM 52.3767 4.0236 115° Southeast 466 536 31,500  Descending FlightAware UK
01:59AM 52.3840 4.0570 115° Southeast 523 602 33,000  Climbing FlightAware
01:59AM 52.3331 4.1742 115° Southeast 466 536 31,500  Descending FlightAware UK
02:00AM 52.3430 4.2010 115° Southeast 523 602 33,000  Climbing FlightAware
02:00AM 52.2895 4.3248 115° Southeast 466 536 31,500  Descending FlightAware UK
02:01AM 52.3000 4.3550 115° Southeast 523 602 33,000  Climbing FlightAware
02:01AM 52.2461 4.4754 115° Southeast 468 539 31,500  Descending FlightAware UK
02:01AM 52.2570 4.5030 115° Southeast 523 602 33,000  Climbing FlightAware
02:02AM 52.1956 4.6478 115° Southeast 468 539 31,500  Descending FlightAware UK
02:02AM 52.2180 4.6420 115° Southeast 524 603 33,000 1,560 Climbing FlightAware
02:03AM 52.1710 4.8020 116° Southeast 524 603 33,000 -1,260 Level FlightAware
02:03AM 52.1070 4.9477 116° Southeast 470 541 31,500  Descending FlightAware UK
02:03AM 52.1310 4.9390 116° Southeast 523 602 33,000  Climbing FlightAware
02:04AM 52.0708 5.0511 116° Southeast 470 541 31,500  Descending FlightAware UK
02:04AM 52.0920 5.0710 116° Southeast 523 602 33,000 1,320 Climbing FlightAware
02:05AM 52.0410 5.2430 116° Southeast 523 602 33,000 -1,380 Level FlightAware
02:05AM 51.9808 5.3483 116° Southeast 470 541 31,500  Descending FlightAware UK
02:05AM 51.9990 5.3850 116° Southeast 521 600 33,000 1,320 Climbing FlightAware
02:06AM 51.9510 5.5460 116° Southeast 519 597 33,000  Level FlightAware
02:07AM 51.9100 5.6810 116° Southeast 519 597 33,000  Level FlightAware
02:07AM 51.8730 5.8040 116° Southeast 518 596 33,000  Level FlightAware
02:08AM 51.8200 5.9760 116° Southeast 517 595 33,000  Level FlightAware
02:09AM 51.7850 6.0890 117° Southeast 515 593 33,000  Level FlightAware
02:10AM 51.7180 6.2570 123° Southeast 510 587 33,000  Level FlightAware
02:10AM 51.6630 6.3660 129° Southeast 508 585 33,000  Level FlightAware
02:11AM 51.6010 6.4880 129° Southeast 507 583 33,000  Level FlightAware
02:12AM 51.5390 6.6080 130° Southeast 505 581 33,000  Level FlightAware
02:12AM 51.4720 6.7380 130° Southeast 504 580 33,000  Level FlightAware
02:13AM 51.4120 6.8560 129° Southeast 504 580 33,000  Level FlightAware
02:14AM 51.3490 6.9760 130° Southeast 504 580 33,000  Level FlightAware
02:14AM 51.2900 7.0890 130° Southeast 502 578 33,000  Level FlightAware
02:15AM 51.2360 7.1920 130° Southeast 503 579 33,000  Level FlightAware
02:16AM 51.1630 7.3300 130° Southeast 502 578 33,000  Level FlightAware
02:17AM 51.1050 7.4390 130° Southeast 501 577 33,000  Level FlightAware
02:17AM 51.0340 7.5710 131° Southeast 501 577 33,000  Level FlightAware
02:18AM 50.9730 7.6840 131° Southeast 501 577 33,000  Level FlightAware
02:19AM 50.9050 7.8090 131° Southeast 495 570 33,000  Level FlightAware
02:19AM 50.8400 7.9280 131° Southeast 494 568 33,000  Level FlightAware
02:20AM 50.7780 8.0410 131° Southeast 493 567 33,000  Level FlightAware
02:21AM 50.7180 8.1510 131° Southeast 493 567 33,000  Level FlightAware
02:22AM 50.6500 8.2730 131° Southeast 493 567 33,000  Level FlightAware
02:22AM 50.5910 8.3780 131° Southeast 493 567 33,000  Level FlightAware
02:23AM 50.5320 8.4840 131° Southeast 493 567 33,000  Level FlightAware
02:24AM 50.4480 8.5840 143° Southeast 488 562 33,000  Level FlightAware
02:24AM 50.3860 8.6470 147° Southeast 482 555 33,000  Level FlightAware
02:25AM 50.2880 8.7440 148° Southeast 491 565 33,000  Level FlightAware
02:26AM 50.2040 8.8260 148° Southeast 492 566 33,000  Level FlightAware
02:26AM 50.1270 8.9000 148° Southeast 492 566 33,000  Level FlightAware
02:27AM 50.0490 8.9750 148° Southeast 493 567 33,000  Level FlightAware
02:28AM 49.9620 9.0580 148° Southeast 494 568 33,000  Level FlightAware
02:28AM 49.8850 9.1320 148° Southeast 496 571 33,000  Level FlightAware
02:29AM 49.7980 9.2150 148° Southeast 495 570 33,000  Level FlightAware
02:30AM 49.7160 9.2920 149° Southeast 495 570 33,000  Level FlightAware
02:31AM 49.6400 9.3770 144° Southeast 498 573 33,000  Level FlightAware
02:31AM 49.5780 9.4770 134° Southeast 501 577 33,000 -180 Level FlightAware
02:32AM 49.5140 9.5860 132° Southeast 33,000 -240 Level FlightAware
02:33AM 49.4500 9.6950 132° Southeast 502 578 32,700 -900 Descending FlightAware
02:33AM 49.3860 9.8060 132° Southeast 483 556 31,800 -1,740 Descending FlightAware
02:34AM 49.3230 9.9120 132° Southeast 472 543 30,300 -2,760 Descending FlightAware
02:35AM 49.2550 10.0250 133° Southeast 479 551 27,900 -3,180 Descending FlightAware
02:35AM 49.2020 10.1140 132° Southeast 484 557 26,100 -1,500 Descending FlightAware
02:37AM 49.0890 10.2950 134° Southeast 478 550 25,000 -540 Descending FlightAware
02:38AM 49.0020 10.4300 134° Southeast 491 565 25,000  Level FlightAware
02:38AM 48.9480 10.5140 134° Southeast 492 566 25,000 -420 Level FlightAware
02:39AM 48.8830 10.6170 134° Southeast 481 554 24,500 -1,620 Descending FlightAware
02:40AM 48.8220 10.7110 135° Southeast 470 541 22,900 -2,340 Descending FlightAware
02:41AM 48.7290 10.8530 135° Southeast 417 480 20,600 -2,220 Descending FlightAware
02:41AM 48.6860 10.9160 136° Southeast 383 441 19,200 -3,120 Descending FlightAware
02:42AM 48.6190 11.0070 138° Southeast 370 426 16,200 -3,480 Descending FlightAware
02:43AM 48.5590 11.0860 139° Southeast 357 411 13,700 -2,880 Descending FlightAware
02:43AM 48.5140 11.1460 139° Southeast 347 399 12,200 -1,740 Descending FlightAware
02:44AM 48.4680 11.2080 138° Southeast 340 391 11,400 -960 Descending FlightAware
02:45AM 48.4300 11.2720 132° Southeast 330 380 11,000 -1,020 Descending FlightAware
02:46AM 48.4370 11.4860 127° Southeast 286 329 9,200 -720 Descending FlightAware
02:47AM 48.3740 11.6512 127° Southeast  Level Estimated
02:48AM 48.4470 11.6400 84° East 293 337 9,000  Level FlightAware
02:49AM 48.4570 11.7790 84° East 288 331 8,100 -780 Descending FlightAware
02:51AM 48.3500 11.7833 127° Southeast  Level FlightAware Approximate
02:52AM 48.3538 11.7861 127° Southeast  Level Estimated
02:53AM 48.3500 11.7833 127° Southeast  Level FlightAware Approximate
02:54AM 48.3538 11.7861 127° Southeast  Level Estimated
02:55AM 48.3500 11.7833 127° Southeast  Level FlightAware Approximate
02:56AM 48.3538 11.7861 127° Southeast  Level Estimated